Portada
METAR-TAF:

METAR-TAF

Aeroports :

Tuggurt, Algèria

latitud: 33-07N, longitud: 006-08E, altitud: 85 m

Observació

L'informe es va fer fa 17 minuts, a les 02:00 UTC
Vent calma
Temperatura 10°C
Humitat 82%
Pressió 1016 hPa
Visibilitat 10 km o més
sense núvols per sota de 1500 mi sense presència de cumulonimbus.

METAR: DAUK 190200Z 00000KT CAVOK 10/07 Q1016

Hora: 03:17 (02:17 UTC)

Pronòstic

L'informe es va fer fa 3 hores i 17 minuts, a les 23:00 UTC
Pronòstic vàlid del 19 a les 00 UTC al 19 a les 09 UTC
Vent 2 kt amb direcció variable
Visibilitat 10 km o més
Núvols disperses a una alçada de 4000 ft
Probabilitat 30% :
Temporalment
l' 19 a les 03 UTC al 19 a les 06 UTC
Visibilitat: 5000 m
boirina

TAF: DAUK 182300Z 1900/1909 VRB02KT 9999 SCT040 PROB30 TEMPO 1903/1906 5000 BR

Observacions i pronòstics meteorològics de més de 4000 aeroports (METAR i TAF).

Les estacions disponibles són els punts grocs i vermells al mapa.

Posi el ratolí al punt desitjat per veure el nom de l'estació.

Feu clic per veure les observacions i els pronòstics meteorològics.

Per canviar el mapa: feu clic els botons verds amb una creu de color negre per apropar; al botó verd amb un guió per allunyar la imatge; o en les fletxes verdes per a mapes adjacents.


METAR-TAF: